Time;durP1;ratioP1;P1;durP2;ratioP2;P2;SDS_P1;SDS_P2;PMS_P1;PMS_P2;Temp;Humidity;BMP_temperature;BMP_pressure;BME280_temperature;BME280_humidity;BME280_pressure;Samples;Min_cycle;Max_cycle;Signal;HPM_P1;HPM_P2
2022/04/28 00:00:55;;;;;;;11.70;6.45;;;;;;;;;;5026192;28;20056;-71
2022/04/28 00:03:20;;;;;;;18.40;6.75;;;;;;;;;;5014788;28;20060;-71
2022/04/28 00:05:46;;;;;;;14.13;7.50;;;;;;;;;;5012616;28;20049;-71
2022/04/28 00:08:11;;;;;;;10.98;6.13;;;;;;;;;;5028402;28;20025;-71
2022/04/28 00:10:37;;;;;;;10.87;6.30;;;;;;;;;;5035510;28;20024;-71
2022/04/28 00:13:02;;;;;;;16.20;7.18;;;;;;;;;;5020117;28;20299;-71
2022/04/28 00:15:29;;;;;;;16.35;7.00;;;;;;;;;;5014580;28;20168;-71
2022/04/28 00:17:54;;;;;;;17.38;7.22;;;;;;;;;;5013685;28;20491;-71
2022/04/28 00:20:19;;;;;;;11.60;6.90;;;;;;;;;;5017831;28;20033;-71
2022/04/28 00:22:44;;;;;;;16.42;7.32;;;;;;;;;;5013662;28;20278;-71
2022/04/28 00:25:09;;;;;;;13.07;7.32;;;;;;;;;;5017478;28;20025;-71
2022/04/28 00:27:35;;;;;;;16.95;7.32;;;;;;;;;;5020167;28;20025;-71
2022/04/28 00:30:00;;;;;;;22.63;7.93;;;;;;;;;;5019674;28;20026;-71
2022/04/28 00:32:25;;;;;;;16.45;7.45;;;;;;;;;;5014503;28;20029;-71
2022/04/28 00:34:50;;;;;;;15.80;7.07;;;;;;;;;;5004970;28;20065;-71
2022/04/28 00:37:17;;;;;;;16.95;7.45;;;;;;;;;;5017273;28;20779;-71
2022/04/28 00:39:42;;;;;;;12.15;6.65;;;;;;;;;;5017673;28;20033;-71
2022/04/28 00:42:11;;;;;;;16.38;7.45;;;;;;;;;;5020559;28;20021;-71
2022/04/28 00:44:37;;;;;;;15.07;6.78;;;;;;;;;;5019880;28;20459;-71
2022/04/28 00:47:02;;;;;;;12.82;6.35;;;;;;;;;;5025668;28;20399;-71
2022/04/28 00:52:11;;;;;;;13.45;6.70;;;;;;;;;;5023736;28;20144;-70
2022/04/28 00:54:37;;;;;;;15.00;7.35;;;;;;;;;;4998416;28;20037;-71
2022/04/28 00:57:02;;;;;;;13.68;6.32;;;;;;;;;;4998265;28;20064;-71
2022/04/28 00:59:29;;;;;;;14.90;7.38;;;;;;;;;;5021368;28;20061;-70
2022/04/28 01:01:54;;;;;;;16.55;8.10;;;;;;;;;;5026738;28;20037;-71
2022/04/28 01:04:19;;;;;;;16.40;8.35;;;;;;;;;;5014276;28;20033;-71
2022/04/28 01:06:44;;;;;;;18.83;7.05;;;;;;;;;;5018235;28;20018;-70
2022/04/28 01:09:10;;;;;;;16.52;7.25;;;;;;;;;;5019475;28;20302;-70
2022/04/28 01:11:36;;;;;;;18.42;7.88;;;;;;;;;;5018958;28;20473;-70
2022/04/28 01:14:01;;;;;;;15.60;6.40;;;;;;;;;;5012371;28;20057;-70
2022/04/28 01:16:27;;;;;;;21.17;7.70;;;;;;;;;;5019422;28;20721;-70
2022/04/28 01:18:52;;;;;;;13.40;7.32;;;;;;;;;;5017884;28;20017;-70
2022/04/28 01:21:17;;;;;;;16.20;7.30;;;;;;;;;;5009845;28;20290;-70
2022/04/28 01:23:42;;;;;;;22.40;8.57;;;;;;;;;;5019610;28;20037;-71
2022/04/28 01:26:07;;;;;;;15.30;7.28;;;;;;;;;;5017622;28;20037;-71
2022/04/28 01:28:33;;;;;;;18.80;8.30;;;;;;;;;;5017764;28;20483;-70
2022/04/28 01:30:59;;;;;;;12.88;7.28;;;;;;;;;;5024103;28;20391;-70
2022/04/28 01:33:24;;;;;;;15.00;7.18;;;;;;;;;;5016350;28;20471;-70
2022/04/28 01:35:49;;;;;;;11.57;6.93;;;;;;;;;;5027548;28;20019;-70
2022/04/28 01:38:15;;;;;;;17.80;6.47;;;;;;;;;;5014434;28;20279;-70
2022/04/28 01:40:40;;;;;;;18.73;7.43;;;;;;;;;;5025348;28;20071;-70
2022/04/28 01:43:05;;;;;;;17.80;7.95;;;;;;;;;;5023593;28;20283;-70
2022/04/28 01:45:30;;;;;;;17.88;7.13;;;;;;;;;;5018976;28;20026;-71
2022/04/28 01:47:55;;;;;;;16.87;7.93;;;;;;;;;;5019028;28;20814;-70
2022/04/28 01:50:21;;;;;;;14.85;7.95;;;;;;;;;;5027752;28;20381;-70
2022/04/28 01:55:31;;;;;;;18.50;7.63;;;;;;;;;;5017846;28;20541;-70
2022/04/28 01:57:56;;;;;;;15.93;7.60;;;;;;;;;;5017829;28;20436;-70
2022/04/28 02:00:22;;;;;;;18.27;7.88;;;;;;;;;;5017392;28;20048;-70
2022/04/28 02:02:47;;;;;;;20.75;8.13;;;;;;;;;;5015992;28;20025;-70
2022/04/28 02:05:12;;;;;;;14.05;8.13;;;;;;;;;;5024002;28;20026;-70
2022/04/28 02:07:38;;;;;;;18.27;7.97;;;;;;;;;;5022055;28;20549;-70
2022/04/28 02:10:04;;;;;;;15.70;8.35;;;;;;;;;;5028684;28;20273;-71
2022/04/28 02:12:29;;;;;;;17.63;7.88;;;;;;;;;;5022353;28;20022;-70
2022/04/28 02:14:54;;;;;;;11.77;6.22;;;;;;;;;;5027631;28;20032;-70
2022/04/28 02:17:21;;;;;;;15.88;7.82;;;;;;;;;;5015207;28;20030;-71
2022/04/28 02:19:46;;;;;;;19.50;7.68;;;;;;;;;;5007934;28;20021;-70
2022/04/28 02:22:12;;;;;;;15.00;7.40;;;;;;;;;;5001174;28;20056;-70
2022/04/28 02:24:37;;;;;;;17.35;8.93;;;;;;;;;;5001416;28;20104;-70
2022/04/28 02:27:02;;;;;;;21.63;8.48;;;;;;;;;;5009255;28;20396;-70
2022/04/28 02:29:27;;;;;;;17.30;7.90;;;;;;;;;;5006002;28;20026;-70
2022/04/28 02:31:53;;;;;;;14.98;6.57;;;;;;;;;;5008970;28;20080;-71
2022/04/28 02:34:18;;;;;;;13.55;7.47;;;;;;;;;;4998454;28;20037;-70
2022/04/28 02:36:43;;;;;;;20.02;7.85;;;;;;;;;;5009437;28;20026;-70
2022/04/28 02:39:09;;;;;;;16.00;8.40;;;;;;;;;;5006992;28;20476;-70
2022/04/28 02:41:35;;;;;;;12.68;7.40;;;;;;;;;;5012340;28;20294;-70
2022/04/28 02:44:00;;;;;;;15.80;7.68;;;;;;;;;;5006758;28;20117;-70
2022/04/28 02:46:27;;;;;;;21.85;7.68;;;;;;;;;;5007096;28;20036;-70
2022/04/28 02:48:52;;;;;;;18.00;7.60;;;;;;;;;;5004139;28;20409;-70
2022/04/28 02:51:17;;;;;;;16.20;8.30;;;;;;;;;;5006218;28;20033;-70
2022/04/28 02:53:42;;;;;;;20.02;7.70;;;;;;;;;;5008910;28;20024;-70
2022/04/28 02:56:07;;;;;;;15.80;7.57;;;;;;;;;;5000862;28;20395;-70
2022/04/28 02:58:34;;;;;;;19.15;7.45;;;;;;;;;;5009511;28;20071;-70
2022/04/28 03:00:59;;;;;;;19.33;8.40;;;;;;;;;;5007002;28;20030;-70
2022/04/28 03:03:24;;;;;;;21.20;9.00;;;;;;;;;;5016104;28;20037;-70
2022/04/28 03:11:31;;;;;;;19.87;8.20;;;;;;;;;;5002951;28;20755;-70
2022/04/28 03:13:56;;;;;;;14.77;8.03;;;;;;;;;;5004672;28;21538;-70
2022/04/28 03:16:22;;;;;;;16.00;7.35;;;;;;;;;;4987220;28;20279;-70
2022/04/28 03:18:47;;;;;;;22.42;9.05;;;;;;;;;;5009026;28;20025;-70
2022/04/28 03:21:13;;;;;;;19.42;7.97;;;;;;;;;;4986836;28;20038;-70
2022/04/28 03:23:38;;;;;;;20.08;8.63;;;;;;;;;;5001366;28;20030;-71
2022/04/28 03:26:03;;;;;;;22.58;8.93;;;;;;;;;;5003957;28;20022;-70
2022/04/28 03:28:29;;;;;;;16.77;8.02;;;;;;;;;;5005002;28;20437;-71
2022/04/28 03:30:55;;;;;;;20.98;7.72;;;;;;;;;;5008572;28;20800;-70
2022/04/28 03:33:20;;;;;;;15.07;7.60;;;;;;;;;;5011509;28;20069;-70
2022/04/28 03:35:45;;;;;;;20.27;8.48;;;;;;;;;;5006770;28;20266;-70
2022/04/28 03:38:11;;;;;;;19.17;8.25;;;;;;;;;;5007454;28;20029;-71
2022/04/28 03:40:37;;;;;;;20.77;8.98;;;;;;;;;;5006179;28;20041;-70
2022/04/28 03:43:03;;;;;;;16.00;7.70;;;;;;;;;;5009209;28;20372;-70
2022/04/28 03:45:28;;;;;;;21.70;8.57;;;;;;;;;;5006547;28;20108;-70
2022/04/28 03:47:53;;;;;;;20.42;8.00;;;;;;;;;;5012760;28;20092;-70
2022/04/28 03:50:18;;;;;;;14.20;7.50;;;;;;;;;;5011225;28;20472;-70
2022/04/28 03:52:43;;;;;;;21.80;7.95;;;;;;;;;;5015052;28;20278;-70
2022/04/28 03:55:09;;;;;;;19.73;8.05;;;;;;;;;;5003360;28;20286;-70
2022/04/28 03:57:34;;;;;;;27.80;8.90;;;;;;;;;;4999592;28;20041;-70
2022/04/28 04:00:00;;;;;;;23.02;8.60;;;;;;;;;;5001913;28;20040;-70
2022/04/28 04:02:25;;;;;;;29.70;10.57;;;;;;;;;;4990038;28;20025;-70
2022/04/28 04:04:50;;;;;;;19.40;8.82;;;;;;;;;;5006109;28;20363;-70
2022/04/28 04:07:16;;;;;;;19.92;8.43;;;;;;;;;;5009728;28;20025;-70
2022/04/28 04:09:42;;;;;;;28.85;9.77;;;;;;;;;;5002855;28;20023;-70
2022/04/28 04:12:08;;;;;;;20.15;8.32;;;;;;;;;;5001702;28;20048;-70
2022/04/28 04:14:33;;;;;;;29.48;9.07;;;;;;;;;;5007815;28;20022;-70
2022/04/28 04:16:58;;;;;;;21.40;9.68;;;;;;;;;;5000620;28;20483;-70
2022/04/28 04:19:23;;;;;;;27.92;10.60;;;;;;;;;;5006918;28;20259;-70
2022/04/28 04:21:49;;;;;;;20.70;9.05;;;;;;;;;;4996610;28;20040;-70
2022/04/28 04:24:14;;;;;;;21.13;9.05;;;;;;;;;;4999469;28;20803;-70
2022/04/28 04:26:39;;;;;;;21.30;8.52;;;;;;;;;;5000897;28;20028;-70
2022/04/28 04:29:05;;;;;;;20.17;8.25;;;;;;;;;;5001171;28;20057;-70
2022/04/28 04:34:14;;;;;;;23.00;8.88;;;;;;;;;;4997499;28;20471;-70
2022/04/28 04:36:39;;;;;;;23.67;9.45;;;;;;;;;;4996244;28;20038;-70
2022/04/28 04:39:04;;;;;;;20.98;8.85;;;;;;;;;;5000027;28;20022;-70
2022/04/28 04:41:29;;;;;;;32.72;10.35;;;;;;;;;;4994879;28;20279;-70
2022/04/28 04:43:55;;;;;;;23.83;9.45;;;;;;;;;;4981743;28;20367;-70
2022/04/28 04:46:20;;;;;;;33.33;10.27;;;;;;;;;;4996648;28;20439;-70
2022/04/28 04:48:45;;;;;;;29.85;10.27;;;;;;;;;;4998326;28;20037;-70
2022/04/28 04:51:10;;;;;;;30.23;10.67;;;;;;;;;;4999220;28;20267;-71
2022/04/28 04:53:35;;;;;;;27.73;10.50;;;;;;;;;;5001807;28;20267;-70
2022/04/28 04:56:00;;;;;;;29.63;11.13;;;;;;;;;;5005773;28;20620;-70
2022/04/28 04:58:26;;;;;;;26.10;10.47;;;;;;;;;;4970864;28;1032711;-71
2022/04/28 05:00:52;;;;;;;25.77;9.68;;;;;;;;;;4998030;28;20267;-70
2022/04/28 05:03:17;;;;;;;25.75;10.05;;;;;;;;;;5005729;28;20569;-72
2022/04/28 05:05:44;;;;;;;31.75;11.23;;;;;;;;;;4998646;28;20076;-71
2022/04/28 05:08:09;;;;;;;27.42;11.43;;;;;;;;;;5002281;28;20041;-69
2022/04/28 05:10:34;;;;;;;38.50;12.85;;;;;;;;;;5006261;28;20034;-70
2022/04/28 05:12:59;;;;;;;27.63;11.43;;;;;;;;;;5003930;28;20036;-70
2022/04/28 05:15:24;;;;;;;35.35;10.73;;;;;;;;;;5001980;28;20749;-68
2022/04/28 05:17:50;;;;;;;30.27;12.05;;;;;;;;;;5011680;28;20032;-68
2022/04/28 05:20:15;;;;;;;30.25;10.55;;;;;;;;;;5013939;28;20029;-68
2022/04/28 05:22:40;;;;;;;33.58;12.27;;;;;;;;;;5009208;28;20030;-68
2022/04/28 05:25:05;;;;;;;32.70;11.30;;;;;;;;;;5006379;28;20022;-69
2022/04/28 05:27:31;;;;;;;28.77;11.23;;;;;;;;;;5004701;28;20766;-68
2022/04/28 05:29:56;;;;;;;29.83;11.75;;;;;;;;;;5011775;28;20049;-68
2022/04/28 05:32:21;;;;;;;26.35;10.75;;;;;;;;;;5007515;28;20033;-68
2022/04/28 05:34:46;;;;;;;35.30;11.05;;;;;;;;;;5005920;28;20029;-68
2022/04/28 05:37:14;;;;;;;36.47;12.90;;;;;;;;;;5005688;28;20083;-68
2022/04/28 05:39:40;;;;;;;30.23;11.27;;;;;;;;;;5011776;28;20054;-68
2022/04/28 05:42:06;;;;;;;31.83;12.40;;;;;;;;;;5002971;28;20573;-68
2022/04/28 05:47:15;;;;;;;33.88;10.55;;;;;;;;;;5008200;28;20041;-68
2022/04/28 05:49:40;;;;;;;31.25;12.18;;;;;;;;;;5002695;28;20025;-68
2022/04/28 05:52:07;;;;;;;27.53;11.30;;;;;;;;;;5006477;28;20021;-68
2022/04/28 05:54:32;;;;;;;41.45;12.48;;;;;;;;;;5006022;28;20734;-68
2022/04/28 05:56:57;;;;;;;27.98;11.18;;;;;;;;;;5005117;28;20030;-68
2022/04/28 05:59:23;;;;;;;29.98;11.32;;;;;;;;;;4999212;28;20328;-68
2022/04/28 06:01:48;;;;;;;35.03;11.48;;;;;;;;;;5006847;28;20293;-68
2022/04/28 06:04:13;;;;;;;39.97;13.02;;;;;;;;;;5005462;28;20362;-68
2022/04/28 06:06:38;;;;;;;38.47;12.47;;;;;;;;;;4996089;28;20124;-68
2022/04/28 06:09:04;;;;;;;40.72;12.70;;;;;;;;;;5001871;28;20761;-68
2022/04/28 06:11:29;;;;;;;33.65;12.55;;;;;;;;;;5015232;28;20514;-68
2022/04/28 06:13:54;;;;;;;41.83;12.65;;;;;;;;;;5005528;28;20602;-68
2022/04/28 06:16:19;;;;;;;33.03;12.20;;;;;;;;;;4991261;28;20152;-68
2022/04/28 06:18:45;;;;;;;33.80;11.63;;;;;;;;;;5005290;28;20486;-68
2022/04/28 06:21:10;;;;;;;46.43;13.80;;;;;;;;;;4999657;28;20283;-68
2022/04/28 06:23:35;;;;;;;40.28;11.68;;;;;;;;;;5003795;28;20271;-68
2022/04/28 06:26:01;;;;;;;31.53;12.67;;;;;;;;;;5009257;28;20035;-68
2022/04/28 06:28:26;;;;;;;29.38;11.68;;;;;;;;;;5001609;28;20724;-68
2022/04/28 06:30:51;;;;;;;31.70;10.85;;;;;;;;;;5004536;28;20026;-68
2022/04/28 06:33:18;;;;;;;25.40;10.80;;;;;;;;;;5010809;28;20069;-68
2022/04/28 06:35:43;;;;;;;27.65;11.43;;;;;;;;;;5001810;28;20321;-68
2022/04/28 06:38:08;;;;;;;31.40;11.43;;;;;;;;;;5005574;28;20400;-68
2022/04/28 06:40:33;;;;;;;29.70;11.27;;;;;;;;;;5001204;28;20488;-67
2022/04/28 06:42:59;;;;;;;29.30;11.27;;;;;;;;;;5003567;28;20364;-68
2022/04/28 06:45:24;;;;;;;24.50;10.40;;;;;;;;;;5007735;28;20271;-67
2022/04/28 06:47:49;;;;;;;31.83;9.98;;;;;;;;;;5001157;28;20033;-68
2022/04/28 06:50:14;;;;;;;29.58;10.35;;;;;;;;;;5002108;28;20029;-68
2022/04/28 06:52:40;;;;;;;26.65;10.25;;;;;;;;;;5006077;28;20629;-68
2022/04/28 06:55:06;;;;;;;25.50;11.57;;;;;;;;;;5001918;28;20021;-68
2022/04/28 06:57:31;;;;;;;25.25;11.05;;;;;;;;;;4999979;28;20114;-69
2022/04/28 06:59:56;;;;;;;25.20;10.07;;;;;;;;;;5004980;28;20025;-69
2022/04/28 07:02:22;;;;;;;26.48;9.27;;;;;;;;;;5011501;28;20029;-68
2022/04/28 07:04:47;;;;;;;27.05;9.82;;;;;;;;;;5010505;28;20072;-68
2022/04/28 07:07:12;;;;;;;22.52;9.20;;;;;;;;;;5004893;28;20025;-68
2022/04/28 07:09:37;;;;;;;24.90;9.32;;;;;;;;;;5002567;28;20117;-68
2022/04/28 07:12:03;;;;;;;25.73;10.07;;;;;;;;;;5005586;28;20026;-68
2022/04/28 07:14:28;;;;;;;25.42;8.55;;;;;;;;;;5005678;28;20302;-69
2022/04/28 07:16:53;;;;;;;31.10;10.35;;;;;;;;;;4998010;28;20366;-68
2022/04/28 07:19:18;;;;;;;20.00;9.27;;;;;;;;;;5004159;28;20455;-69
2022/04/28 07:21:43;;;;;;;26.80;9.55;;;;;;;;;;5004621;28;20827;-68
2022/04/28 07:24:09;;;;;;;28.83;9.63;;;;;;;;;;5006648;28;20583;-68
2022/04/28 07:26:34;;;;;;;23.47;9.53;;;;;;;;;;5011363;28;20384;-68
2022/04/28 07:28:59;;;;;;;19.65;8.43;;;;;;;;;;5003263;28;21067;-68
2022/04/28 07:31:24;;;;;;;23.35;8.73;;;;;;;;;;5013772;28;20030;-69
2022/04/28 07:33:49;;;;;;;27.35;10.00;;;;;;;;;;5002194;28;20025;-68
2022/04/28 07:36:15;;;;;;;22.88;8.40;;;;;;;;;;5003077;28;20414;-74
2022/04/28 07:38:41;;;;;;;20.95;8.48;;;;;;;;;;5002630;28;20026;-69
2022/04/28 07:41:06;;;;;;;22.83;7.13;;;;;;;;;;5005371;28;20542;-71
2022/04/28 07:43:31;;;;;;;23.40;8.87;;;;;;;;;;5003992;28;20030;-71
2022/04/28 07:45:56;;;;;;;22.87;8.10;;;;;;;;;;5001002;28;20271;-70
2022/04/28 07:48:22;;;;;;;25.15;8.73;;;;;;;;;;4996946;28;20275;-70
2022/04/28 07:50:47;;;;;;;23.10;7.47;;;;;;;;;;4998932;28;20038;-70
2022/04/28 07:53:12;;;;;;;17.55;7.15;;;;;;;;;;5001476;28;20539;-71
2022/04/28 07:55:38;;;;;;;26.85;9.57;;;;;;;;;;5000578;28;20033;-71
2022/04/28 07:58:03;;;;;;;17.98;6.97;;;;;;;;;;5003604;28;20034;-69
2022/04/28 08:00:28;;;;;;;16.00;6.60;;;;;;;;;;5003148;28;20444;-70
2022/04/28 08:02:53;;;;;;;22.83;7.90;;;;;;;;;;5006273;28;20398;-70
2022/04/28 08:05:18;;;;;;;17.33;6.85;;;;;;;;;;5002933;28;20677;-69
2022/04/28 08:07:45;;;;;;;15.23;7.30;;;;;;;;;;5002419;28;20030;-69
2022/04/28 08:10:10;;;;;;;13.65;7.15;;;;;;;;;;5012537;28;20314;-69
2022/04/28 08:12:35;;;;;;;14.90;6.50;;;;;;;;;;5009175;28;20080;-69
2022/04/28 08:15:00;;;;;;;18.93;6.33;;;;;;;;;;5010660;28;20083;-69
2022/04/28 08:17:26;;;;;;;18.55;7.20;;;;;;;;;;5002451;28;20275;-69
2022/04/28 08:19:51;;;;;;;14.18;6.70;;;;;;;;;;5001974;28;20269;-69
2022/04/28 08:22:16;;;;;;;15.80;6.68;;;;;;;;;;5005796;28;20080;-69
2022/04/28 08:24:42;;;;;;;18.33;7.37;;;;;;;;;;5011089;28;20022;-69
2022/04/28 08:27:07;;;;;;;18.63;7.20;;;;;;;;;;5005717;28;20021;-69
2022/04/28 08:29:32;;;;;;;16.60;6.63;;;;;;;;;;5003666;28;20326;-70
2022/04/28 08:31:57;;;;;;;17.00;6.70;;;;;;;;;;5006414;28;20027;-69
2022/04/28 08:34:22;;;;;;;12.82;6.97;;;;;;;;;;5005218;28;20349;-68
2022/04/28 08:36:48;;;;;;;17.48;6.35;;;;;;;;;;5003826;28;20037;-69
2022/04/28 08:39:13;;;;;;;10.70;6.38;;;;;;;;;;5003405;28;20095;-70
2022/04/28 08:41:45;;;;;;;15.80;6.60;;;;;;;;;;5005471;28;20436;-69
2022/04/28 08:44:14;;;;;;;14.52;6.63;;;;;;;;;;5001623;28;20286;-71
2022/04/28 08:46:51;;;;;;;22.55;7.07;;;;;;;;;;5000580;28;20086;-70
2022/04/28 08:49:22;;;;;;;15.15;6.85;;;;;;;;;;5000784;28;20032;-71
2022/04/28 08:51:49;;;;;;;16.58;6.90;;;;;;;;;;5016359;28;20445;-70
2022/04/28 08:54:14;;;;;;;11.18;6.38;;;;;;;;;;5006048;28;20543;-70
2022/04/28 08:56:39;;;;;;;17.58;7.13;;;;;;;;;;5007971;28;20112;-69
2022/04/28 08:59:05;;;;;;;13.80;6.23;;;;;;;;;;5009779;28;20042;-68
2022/04/28 09:01:30;;;;;;;18.30;7.00;;;;;;;;;;5008034;28;20266;-69
2022/04/28 09:03:56;;;;;;;12.82;6.80;;;;;;;;;;5004725;28;20368;-69
2022/04/28 09:06:22;;;;;;;22.67;6.72;;;;;;;;;;5001840;28;20072;-70
2022/04/28 09:08:48;;;;;;;14.23;6.07;;;;;;;;;;5003366;28;20464;-69
2022/04/28 09:11:17;;;;;;;15.93;6.68;;;;;;;;;;5003685;28;20117;-68
2022/04/28 09:16:27;;;;;;;18.08;6.90;;;;;;;;;;5007897;28;20114;-69
2022/04/28 09:18:53;;;;;;;16.42;7.15;;;;;;;;;;4999543;28;20152;-68
2022/04/28 09:21:19;;;;;;;18.90;6.85;;;;;;;;;;5000710;28;20029;-68
2022/04/28 09:23:44;;;;;;;12.23;6.95;;;;;;;;;;5009227;28;20030;-68
2022/04/28 09:26:10;;;;;;;12.18;7.10;;;;;;;;;;5004585;28;20026;-68
2022/04/28 09:28:36;;;;;;;18.75;7.28;;;;;;;;;;4998482;28;20361;-69
2022/04/28 09:31:01;;;;;;;14.77;7.03;;;;;;;;;;5001496;28;20022;-68
2022/04/28 09:33:28;;;;;;;11.00;5.77;;;;;;;;;;5006899;28;20063;-68
2022/04/28 09:35:53;;;;;;;14.27;6.55;;;;;;;;;;5004143;28;20303;-68
2022/04/28 09:38:19;;;;;;;22.33;6.43;;;;;;;;;;4997749;28;20069;-69
2022/04/28 09:43:30;;;;;;;14.88;6.32;;;;;;;;;;5000155;28;20502;-69
2022/04/28 09:45:55;;;;;;;20.30;9.05;;;;;;;;;;5001969;28;20026;-70
2022/04/28 09:48:21;;;;;;;13.43;7.18;;;;;;;;;;4999556;28;20026;-70
2022/04/28 09:50:47;;;;;;;19.25;6.93;;;;;;;;;;5000928;28;20033;-70
2022/04/28 09:53:14;;;;;;;18.80;6.90;;;;;;;;;;5012383;28;20026;-70
2022/04/28 09:55:40;;;;;;;13.25;7.05;;;;;;;;;;5004432;28;20463;-69
2022/04/28 09:58:09;;;;;;;17.02;8.23;;;;;;;;;;4998810;28;20057;-69
2022/04/28 10:00:34;;;;;;;18.98;7.38;;;;;;;;;;5006361;28;20030;-69
2022/04/28 10:03:02;;;;;;;12.32;7.45;;;;;;;;;;5010068;28;20032;-70
2022/04/28 10:05:27;;;;;;;17.20;7.40;;;;;;;;;;5003891;28;20029;-69
2022/04/28 10:07:53;;;;;;;18.93;7.70;;;;;;;;;;5005032;28;20026;-70
2022/04/28 10:10:19;;;;;;;18.35;7.90;;;;;;;;;;5009274;28;20028;-69
2022/04/28 10:12:44;;;;;;;16.05;7.25;;;;;;;;;;5013140;28;20026;-69
2022/04/28 10:15:11;;;;;;;19.58;7.70;;;;;;;;;;5012063;28;20057;-69
2022/04/28 10:17:36;;;;;;;13.38;7.28;;;;;;;;;;5004400;28;20030;-69
2022/04/28 10:20:07;;;;;;;18.43;7.33;;;;;;;;;;5009198;28;20037;-70
2022/04/28 10:22:34;;;;;;;20.17;8.27;;;;;;;;;;5001658;28;20088;-69
2022/04/28 10:33:19;;;;;;;20.65;7.70;;;;;;;;;;5014806;28;20044;-69
2022/04/28 10:35:47;;;;;;;15.45;7.03;;;;;;;;;;5007078;28;20030;-73
2022/04/28 10:38:19;;;;;;;15.75;7.78;;;;;;;;;;5000660;28;20101;-70
2022/04/28 10:40:46;;;;;;;20.20;7.20;;;;;;;;;;5004709;28;20033;-72
2022/04/28 10:43:24;;;;;;;16.95;7.30;;;;;;;;;;5006610;28;20030;-72
2022/04/28 10:45:51;;;;;;;19.15;7.38;;;;;;;;;;5000743;28;20033;-71
2022/04/28 10:48:29;;;;;;;16.75;7.75;;;;;;;;;;5003535;28;20113;-71
2022/04/28 10:50:58;;;;;;;20.17;7.90;;;;;;;;;;5007828;28;20022;-70
2022/04/28 10:53:23;;;;;;;15.90;7.43;;;;;;;;;;5014674;28;20387;-71
2022/04/28 10:55:49;;;;;;;14.70;7.47;;;;;;;;;;5001479;28;20407;-71
2022/04/28 10:58:21;;;;;;;13.52;7.90;;;;;;;;;;5008598;28;20037;-71
2022/04/28 11:00:50;;;;;;;17.25;6.80;;;;;;;;;;5007788;28;20022;-73
2022/04/28 11:03:15;;;;;;;16.98;6.90;;;;;;;;;;5007440;28;20041;-71
2022/04/28 11:05:41;;;;;;;16.98;8.00;;;;;;;;;;5004395;28;20431;-71
2022/04/28 11:08:09;;;;;;;14.55;7.55;;;;;;;;;;5002007;28;20539;-72
2022/04/28 11:10:54;;;;;;;29.75;8.00;;;;;;;;;;5009163;28;20048;-72
2022/04/28 11:13:20;;;;;;;18.27;8.40;;;;;;;;;;5011565;28;20061;-73
2022/04/28 11:15:46;;;;;;;16.25;7.75;;;;;;;;;;5002786;28;20057;-73
2022/04/28 11:18:12;;;;;;;13.20;7.55;;;;;;;;;;5002569;28;20105;-72
2022/04/28 11:20:38;;;;;;;14.93;8.13;;;;;;;;;;5013585;28;20474;-72
2022/04/28 11:23:03;;;;;;;18.45;8.20;;;;;;;;;;5005135;28;20033;-73
2022/04/28 11:25:28;;;;;;;17.33;7.68;;;;;;;;;;5008426;28;20104;-73
2022/04/28 11:27:56;;;;;;;14.73;6.97;;;;;;;;;;5001047;28;20032;-72
2022/04/28 11:30:22;;;;;;;16.45;8.65;;;;;;;;;;5011757;28;20108;-72
2022/04/28 11:32:49;;;;;;;19.40;8.85;;;;;;;;;;5004718;28;20105;-72
2022/04/28 11:35:15;;;;;;;17.70;8.20;;;;;;;;;;5005451;28;20414;-72
2022/04/28 11:37:40;;;;;;;22.60;8.15;;;;;;;;;;5002473;28;20095;-72
2022/04/28 11:40:06;;;;;;;18.20;7.77;;;;;;;;;;5012663;28;20450;-73
2022/04/28 11:42:33;;;;;;;19.23;8.15;;;;;;;;;;5011413;28;20375;-73
2022/04/28 11:45:00;;;;;;;19.38;7.75;;;;;;;;;;5003389;28;20363;-73
2022/04/28 11:47:25;;;;;;;13.50;6.88;;;;;;;;;;4999455;28;20539;-73
2022/04/28 11:49:58;;;;;;;16.42;8.52;;;;;;;;;;5004960;28;20042;-73
2022/04/28 11:52:25;;;;;;;19.60;8.38;;;;;;;;;;4998072;28;20021;-73
2022/04/28 11:54:51;;;;;;;17.15;8.23;;;;;;;;;;5010672;28;20456;-72
2022/04/28 11:57:17;;;;;;;13.32;7.85;;;;;;;;;;4998594;28;20026;-72
2022/04/28 11:59:43;;;;;;;11.95;8.02;;;;;;;;;;5003823;28;20096;-73
2022/04/28 12:02:22;;;;;;;13.57;7.85;;;;;;;;;;5005414;28;20531;-72
2022/04/28 12:04:48;;;;;;;16.88;7.95;;;;;;;;;;5007669;28;20030;-73
2022/04/28 12:07:20;;;;;;;17.75;8.20;;;;;;;;;;4992398;28;20362;-73
2022/04/28 12:15:13;;;;;;;15.40;7.32;;;;;;;;;;4995334;28;20503;-72
2022/04/28 12:20:37;;;;;;;13.93;7.05;;;;;;;;;;5005107;28;20132;-72
2022/04/28 12:23:03;;;;;;;19.42;7.63;;;;;;;;;;5002524;28;20112;-75
2022/04/28 12:25:28;;;;;;;14.47;7.33;;;;;;;;;;4995291;28;20029;-73
2022/04/28 12:27:54;;;;;;;14.20;7.73;;;;;;;;;;5000098;28;20056;-73
2022/04/28 12:30:20;;;;;;;15.68;7.38;;;;;;;;;;5017805;28;20071;-73
2022/04/28 12:32:49;;;;;;;21.23;7.97;;;;;;;;;;5008254;28;20459;-72
2022/04/28 12:35:32;;;;;;;14.63;7.60;;;;;;;;;;5002261;28;20144;-73
2022/04/28 12:37:59;;;;;;;13.23;7.43;;;;;;;;;;4995543;28;20491;-71
2022/04/28 12:40:25;;;;;;;16.70;8.00;;;;;;;;;;4997772;28;20063;-72
2022/04/28 12:42:50;;;;;;;15.98;8.30;;;;;;;;;;5004528;28;20136;-71
2022/04/28 12:45:33;;;;;;;13.65;7.78;;;;;;;;;;5000673;28;20121;-72
2022/04/28 12:47:58;;;;;;;14.70;7.18;;;;;;;;;;4999055;28;20072;-71
2022/04/28 12:50:24;;;;;;;15.77;7.07;;;;;;;;;;5008759;28;20111;-71
2022/04/28 12:52:49;;;;;;;13.23;7.50;;;;;;;;;;5010674;28;20025;-72
2022/04/28 12:55:15;;;;;;;13.13;7.18;;;;;;;;;;4998036;28;20184;-71
2022/04/28 12:57:40;;;;;;;11.65;6.47;;;;;;;;;;4996369;28;20026;-71
2022/04/28 13:00:07;;;;;;;13.40;6.88;;;;;;;;;;5012146;28;20053;-71
2022/04/28 13:02:33;;;;;;;15.43;6.72;;;;;;;;;;5011125;28;20056;-71
2022/04/28 13:05:14;;;;;;;10.52;7.00;;;;;;;;;;5003548;28;20437;-72
2022/04/28 13:07:42;;;;;;;14.57;6.13;;;;;;;;;;5004615;28;20014;-71
2022/04/28 13:10:08;;;;;;;14.55;7.60;;;;;;;;;;5014416;28;20491;-72
2022/04/28 13:12:33;;;;;;;16.42;6.80;;;;;;;;;;5009870;28;20030;-70
2022/04/28 13:15:01;;;;;;;14.10;7.25;;;;;;;;;;5011400;28;20063;-72
2022/04/28 13:17:27;;;;;;;9.55;6.70;;;;;;;;;;5002299;28;20030;-71
2022/04/28 13:19:52;;;;;;;12.77;6.75;;;;;;;;;;5013686;28;20365;-72
2022/04/28 13:22:17;;;;;;;14.77;6.13;;;;;;;;;;5007195;28;20033;-72
2022/04/28 13:24:42;;;;;;;16.40;7.60;;;;;;;;;;5006963;28;20739;-72
2022/04/28 13:27:08;;;;;;;12.32;6.75;;;;;;;;;;5006046;28;20105;-72
2022/04/28 13:29:33;;;;;;;11.43;6.70;;;;;;;;;;4995327;28;20377;-72
2022/04/28 13:31:58;;;;;;;9.77;6.33;;;;;;;;;;5014094;28;20092;-72
2022/04/28 13:34:23;;;;;;;10.85;7.35;;;;;;;;;;5025658;28;20075;-72
2022/04/28 13:36:51;;;;;;;12.95;7.70;;;;;;;;;;5021380;28;20028;-72
2022/04/28 13:39:18;;;;;;;13.75;7.43;;;;;;;;;;5008782;28;20038;-73
2022/04/28 13:41:46;;;;;;;15.68;7.53;;;;;;;;;;5010308;28;20026;-72
2022/04/28 13:44:11;;;;;;;11.57;6.57;;;;;;;;;;5009141;28;20111;-72
2022/04/28 13:46:37;;;;;;;11.37;6.63;;;;;;;;;;5006489;28;20014;-72
2022/04/28 13:49:02;;;;;;;12.40;6.53;;;;;;;;;;5015819;28;20267;-72
2022/04/28 13:51:27;;;;;;;11.97;5.70;;;;;;;;;;5010740;28;20120;-72
2022/04/28 13:53:52;;;;;;;14.38;6.60;;;;;;;;;;5009944;28;20064;-73
2022/04/28 13:56:17;;;;;;;12.77;6.30;;;;;;;;;;5006354;28;20376;-72
2022/04/28 13:58:44;;;;;;;12.03;6.80;;;;;;;;;;5006831;28;20017;-71
2022/04/28 14:01:10;;;;;;;8.98;5.20;;;;;;;;;;5009120;28;20763;-72
2022/04/28 14:03:35;;;;;;;12.35;6.03;;;;;;;;;;5011318;28;20074;-72
2022/04/28 14:06:03;;;;;;;10.18;6.22;;;;;;;;;;5007557;28;20089;-71
2022/04/28 14:08:28;;;;;;;12.45;5.85;;;;;;;;;;5006957;28;20060;-72
2022/04/28 14:10:53;;;;;;;8.77;6.00;;;;;;;;;;5008773;28;20057;-72
2022/04/28 14:13:19;;;;;;;7.20;5.70;;;;;;;;;;5009187;28;20271;-72
2022/04/28 14:15:44;;;;;;;13.38;6.10;;;;;;;;;;5014039;28;20110;-72
2022/04/28 14:18:09;;;;;;;9.57;6.57;;;;;;;;;;5006883;28;20045;-72
2022/04/28 14:20:35;;;;;;;38.08;9.15;;;;;;;;;;5014494;28;20354;-71
2022/04/28 14:23:00;;;;;;;18.05;7.03;;;;;;;;;;5014023;28;20044;-72
2022/04/28 14:25:25;;;;;;;14.27;6.10;;;;;;;;;;5003814;28;20022;-72
2022/04/28 14:27:51;;;;;;;13.02;5.45;;;;;;;;;;5006893;28;20019;-72
2022/04/28 14:30:16;;;;;;;13.93;6.15;;;;;;;;;;5011893;28;20464;-72
2022/04/28 14:32:42;;;;;;;11.77;5.22;;;;;;;;;;5009285;28;20575;-72
2022/04/28 14:35:08;;;;;;;8.55;5.60;;;;;;;;;;5010676;28;20460;-71
2022/04/28 14:37:34;;;;;;;8.45;5.32;;;;;;;;;;5013845;28;20021;-72
2022/04/28 14:40:00;;;;;;;11.63;5.85;;;;;;;;;;5018573;28;20037;-72
2022/04/28 14:42:25;;;;;;;13.10;6.15;;;;;;;;;;5015269;28;20395;-72
2022/04/28 14:44:50;;;;;;;8.60;5.60;;;;;;;;;;5009260;28;20101;-72
2022/04/28 14:47:15;;;;;;;28.23;6.23;;;;;;;;;;5018945;28;20252;-72
2022/04/28 14:52:24;;;;;;;14.70;5.95;;;;;;;;;;5019654;28;20037;-71
2022/04/28 14:54:55;;;;;;;9.38;5.82;;;;;;;;;;5015144;28;20025;-72
2022/04/28 14:57:23;;;;;;;10.65;5.70;;;;;;;;;;5012066;28;20052;-72
2022/04/28 14:59:49;;;;;;;12.80;5.60;;;;;;;;;;5017225;28;20049;-72
2022/04/28 15:02:14;;;;;;;13.30;5.80;;;;;;;;;;5008357;28;20721;-72